Decoded Metar for PAVC (KING COVE in AK, USA) (IATA:N/A) | Meteo·Mobile Aviation Weather
aviador You're here:

PAVC Decoded Metar

KING COVE in AK, USA
Report Time2019-02-17 06:02:00
UTC Time2019-02-17 06:18:33
Flight Rules ifr IFR
Wind190° at 18 Gusting to 24 kt
W.Decomp.*RWY 25: 5.0 kt HW 17.3 kt LCW
W.Rank190° ranks 26
Current wind is above 190° avg. (9.2)
Visibility3219 m
Phenomena:Light Rain
Mist
Clouds:Broken 008 Hf
Overcast 014 Hf
Expected CloudBase > 400 ft AGL from Temp-Dew spread
Ceiling800 ft
Temp04°C (ISA -11)
Dew Point03°C (93% RH)
AAT-4.0°C
QNH1003 hPa
Density Alt-696 ft
Elevation154 ft
Report Wrong Elevation
Raw Report
PAVC 170602Z AUTO 19018G24KT 2SM -RA BR BKN008 OVC014 04/03 A2963
RMK AO2 VIS 1 1/2V4 CIG 006V011 P0000=

Extra information for PAVC:More info

Metar Taf Metar & Taf Last 4 Metars F.Rules Stats Wind Profile Meteogram Temp Stats Airport Information Weather charts Add Link Nearby VenuesMetar ALERT Operation Metar Decoded Social comments

AIRNAV info for PAVC